Time;durP1;ratioP1;P1;durP2;ratioP2;P2;SDS_P1;SDS_P2;PMS_P1;PMS_P2;Temp;Humidity;BMP_temperature;BMP_pressure;BME280_temperature;BME280_humidity;BME280_pressure;Samples;Min_cycle;Max_cycle;Signal;HPM_P1;HPM_P2
2023/04/09 00:01:37;;;;;;;;;34.00;27.50;;;;;11.13;55.73;102011.53;4997836;28;45317;-43
2023/04/09 00:04:03;;;;;;;;;38.75;23.50;;;;;11.14;56.23;102007.91;4997569;28;45409;-44
2023/04/09 00:06:28;;;;;;;;;40.75;37.00;;;;;11.14;55.90;102004.38;4980259;28;45258;-44
2023/04/09 00:08:53;;;;;;;;;31.25;27.50;;;;;11.12;55.94;102001.81;4997539;28;45322;-45
2023/04/09 00:11:19;;;;;;;;;37.75;33.75;;;;;11.13;56.12;101997.38;4997446;28;45535;-43
2023/04/09 00:13:44;;;;;;;;;39.25;29.25;;;;;11.11;56.17;101997.47;4997550;28;45368;-45
2023/04/09 00:16:10;;;;;;;;;45.00;34.00;;;;;11.08;55.69;101996.84;4997689;28;45325;-44
2023/04/09 00:18:35;;;;;;;;;44.50;30.75;;;;;11.05;55.94;101991.78;4997916;28;45365;-47
2023/04/09 00:21:01;;;;;;;;;38.25;31.00;;;;;11.04;56.44;101995.41;4997616;28;46707;-44
2023/04/09 00:23:26;;;;;;;;;46.00;36.75;;;;;11.04;56.62;101992.72;4996990;28;45389;-45
2023/04/09 00:25:51;;;;;;;;;47.75;36.50;;;;;11.02;56.96;101981.38;4997505;28;45386;-45
2023/04/09 00:28:17;;;;;;;;;40.25;34.25;;;;;11.04;56.79;101993.59;4997821;28;45453;-43
2023/04/09 00:30:42;;;;;;;;;41.00;31.25;;;;;11.04;56.57;101990.94;4997236;28;45508;-43
2023/04/09 00:33:07;;;;;;;;;54.50;38.25;;;;;10.95;56.66;101975.66;4997463;28;45311;-44
2023/04/09 00:35:32;;;;;;;;;31.75;26.50;;;;;11.03;56.80;101991.88;4997602;28;45440;-44
2023/04/09 00:37:58;;;;;;;;;42.50;32.50;;;;;11.03;56.86;101986.56;4997633;28;45200;-47
2023/04/09 00:40:23;;;;;;;;;52.00;36.00;;;;;11.02;56.98;101984.88;4997102;28;45373;-45
2023/04/09 00:42:49;;;;;;;;;40.75;29.75;;;;;11.02;56.71;101984.03;4979520;28;45911;-43
2023/04/09 00:45:14;;;;;;;;;45.50;34.00;;;;;11.03;56.72;101975.06;4997442;28;45465;-44
2023/04/09 00:47:42;;;;;;;;;36.25;29.75;;;;;10.96;56.66;101972.06;4997606;28;45433;-45
2023/04/09 00:50:08;;;;;;;;;39.00;32.00;;;;;10.98;57.00;101981.59;4979517;28;47109;-45
2023/04/09 00:52:33;;;;;;;;;34.50;27.00;;;;;10.97;56.99;101982.56;4996146;28;45414;-46
2023/04/09 00:55:00;;;;;;;;;36.00;31.75;;;;;10.99;57.31;101980.63;4997209;28;45375;-43
2023/04/09 00:57:27;;;;;;;;;40.25;28.75;;;;;10.98;57.36;101978.09;4997404;28;45270;-46
2023/04/09 00:59:53;;;;;;;;;37.00;30.00;;;;;11.01;57.38;101980.53;4996925;28;47162;-43
2023/04/09 01:02:18;;;;;;;;;40.75;32.00;;;;;10.99;57.29;101972.63;4997001;28;45273;-44
2023/04/09 01:04:44;;;;;;;;;49.50;35.75;;;;;11.03;57.58;101975.91;4997069;28;45656;-42
2023/04/09 01:07:28;;;;;;;;;45.25;31.25;;;;;11.06;57.71;101974.84;4997398;28;45359;-42
2023/04/09 01:10:04;;;;;;;;;33.00;31.75;;;;;11.05;57.31;101974.00;4996776;28;45719;-47
2023/04/09 01:12:42;;;;;;;;;31.75;25.25;;;;;10.97;57.25;101955.94;4996858;28;45869;-44
2023/04/09 01:15:10;;;;;;;;;30.00;20.00;;;;;11.06;57.37;101964.19;4997017;28;45392;-43
2023/04/09 01:17:45;;;;;;;;;30.50;28.50;;;;;11.06;57.23;101969.50;4997159;28;45330;-44
2023/04/09 01:20:17;;;;;;;;;34.50;30.00;;;;;11.08;57.20;101972.88;4996824;28;45332;-44
2023/04/09 01:22:59;;;;;;;;;42.25;30.75;;;;;11.08;57.41;101973.75;4999791;28;45459;-44
2023/04/09 01:25:43;;;;;;;;;42.00;32.00;;;;;11.04;57.47;101966.09;5000048;28;45535;-46
2023/04/09 01:28:22;;;;;;;;;35.75;29.50;;;;;11.05;57.28;101967.81;5000409;28;45389;-45
2023/04/09 01:30:51;;;;;;;;;44.00;30.25;;;;;11.06;57.64;101975.69;5000020;28;47015;-44
2023/04/09 01:33:18;;;;;;;;;41.75;34.25;;;;;11.06;57.76;101965.03;5000204;28;45399;-46
2023/04/09 01:35:47;;;;;;;;;29.75;25.00;;;;;11.05;57.66;101968.66;5000114;28;45389;-45
2023/04/09 01:38:15;;;;;;;;;41.25;34.00;;;;;11.06;57.74;101973.03;5000103;28;45491;-45
2023/04/09 01:40:41;;;;;;;;;42.00;31.25;;;;;11.00;57.99;101954.88;4999786;28;45489;-43
2023/04/09 01:43:08;;;;;;;;;42.75;31.75;;;;;11.05;57.79;101965.16;4998957;28;45265;-44
2023/04/09 01:45:33;;;;;;;;;34.25;28.50;;;;;11.03;57.57;101954.59;4999780;28;45171;-43
2023/04/09 01:48:00;;;;;;;;;35.00;27.25;;;;;11.05;57.73;101965.16;5000250;28;45212;-46
2023/04/09 01:50:28;;;;;;;;;35.50;29.50;;;;;11.01;57.57;101953.06;4999763;28;47253;-43
2023/04/09 01:52:53;;;;;;;;;36.25;32.00;;;;;11.03;57.61;101965.25;4999774;28;45377;-44
2023/04/09 01:55:18;;;;;;;;;41.75;30.50;;;;;11.02;57.58;101963.56;4999712;28;45297;-45
2023/04/09 01:57:44;;;;;;;;;30.25;26.75;;;;;11.00;57.53;101954.88;5000020;28;45404;-43
2023/04/09 02:00:10;;;;;;;;;33.00;25.00;;;;;11.01;57.62;101958.38;4999544;28;46359;-45
2023/04/09 02:02:49;;;;;;;;;32.75;27.00;;;;;10.99;57.51;101948.69;4999646;28;45410;-43
2023/04/09 02:05:18;;;;;;;;;37.75;28.50;;;;;10.99;57.58;101947.81;4999366;28;45299;-44
2023/04/09 02:07:49;;;;;;;;;39.50;28.25;;;;;10.97;57.57;101947.97;4999665;28;45440;-43
2023/04/09 02:10:19;;;;;;;;;38.00;32.25;;;;;10.97;57.59;101945.31;4999264;28;46396;-43
2023/04/09 02:12:49;;;;;;;;;32.00;29.25;;;;;10.94;57.68;101945.53;4999259;28;45402;-46
2023/04/09 02:15:16;;;;;;;;;37.50;29.00;;;;;10.94;57.51;101942.88;4999700;28;45338;-46
2023/04/09 02:17:42;;;;;;;;;32.75;27.50;;;;;10.95;57.74;101949.03;4982016;28;45456;-48
2023/04/09 02:20:08;;;;;;;;;34.25;26.00;;;;;10.94;57.40;101947.34;4999091;28;45483;-48
2023/04/09 02:22:33;;;;;;;;;29.25;27.00;;;;;10.89;57.61;101929.06;4999394;28;45357;-47
2023/04/09 02:24:58;;;;;;;;;45.75;33.50;;;;;10.90;58.22;101932.59;4999383;28;45731;-49
2023/04/09 02:27:24;;;;;;;;;35.00;26.75;;;;;10.88;57.61;101931.88;4981709;28;45478;-43
2023/04/09 02:29:49;;;;;;;;;43.50;26.25;;;;;10.86;57.90;101923.13;4998794;28;46262;-44
2023/04/09 02:32:16;;;;;;;;;40.75;33.25;;;;;10.82;57.84;101921.69;4998798;28;45339;-44
2023/04/09 02:34:41;;;;;;;;;39.75;31.50;;;;;10.82;57.90;101927.84;4999250;28;45452;-45
2023/04/09 02:37:07;;;;;;;;;28.00;24.00;;;;;10.75;57.76;101913.34;4999250;28;45378;-46
2023/04/09 02:39:32;;;;;;;;;45.50;29.00;;;;;10.81;58.01;101927.97;4999144;28;45383;-42
2023/04/09 02:41:57;;;;;;;;;39.25;28.25;;;;;10.80;58.23;101919.16;4998479;28;45563;-51
2023/04/09 02:44:23;;;;;;;;;31.25;30.00;;;;;10.80;58.07;101926.28;4998914;28;45468;-46
2023/04/09 02:46:50;;;;;;;;;39.75;32.00;;;;;10.68;58.05;101902.31;4999226;28;45381;-51
2023/04/09 02:49:16;;;;;;;;;42.25;30.25;;;;;10.78;58.10;101920.22;4981231;28;47443;-48
2023/04/09 02:51:41;;;;;;;;;38.50;31.50;;;;;10.76;58.06;101911.53;4998871;28;45310;-47
2023/04/09 02:54:06;;;;;;;;;39.00;29.00;;;;;10.75;58.32;101913.34;4998872;28;45243;-49
2023/04/09 02:56:32;;;;;;;;;29.50;29.50;;;;;10.77;57.97;101921.19;4998994;28;45299;-46
2023/04/09 02:58:57;;;;;;;;;38.25;30.00;;;;;10.70;58.26;101912.81;4998869;28;46690;-44
2023/04/09 03:01:22;;;;;;;;;33.25;26.75;;;;;10.76;58.19;101916.84;4998620;28;45428;-44
2023/04/09 03:03:48;;;;;;;;;33.00;28.75;;;;;10.75;58.12;101918.66;4998872;28;45400;-45
2023/04/09 03:06:13;;;;;;;;;45.50;28.00;;;;;10.74;58.32;101914.28;4998796;28;45316;-45
2023/04/09 03:08:38;;;;;;;;;39.00;31.50;;;;;10.71;58.43;101909.22;4998635;28;46266;-43
2023/04/09 03:11:04;;;;;;;;;32.50;29.50;;;;;10.71;58.36;101899.41;4998663;28;45391;-43
2023/04/09 03:13:30;;;;;;;;;38.50;25.25;;;;;10.72;58.41;101901.09;4998447;28;45412;-44
2023/04/09 03:15:55;;;;;;;;;36.00;31.00;;;;;10.69;58.58;101905.81;4998675;28;45415;-45
2023/04/09 03:18:20;;;;;;;;;45.00;35.25;;;;;10.67;58.47;101899.78;4998404;28;46033;-45
2023/04/09 03:20:46;;;;;;;;;33.50;26.25;;;;;10.70;58.65;101900.41;4998362;28;45334;-44
2023/04/09 03:23:11;;;;;;;;;41.00;26.50;;;;;10.69;58.61;101897.84;4998718;28;45343;-44
2023/04/09 03:25:37;;;;;;;;;39.50;33.25;;;;;10.58;58.44;101879.22;4998504;28;45377;-43
2023/04/09 03:28:02;;;;;;;;;37.25;33.00;;;;;10.67;58.52;101900.63;4998274;28;45300;-48
2023/04/09 03:30:28;;;;;;;;;47.00;35.00;;;;;10.56;58.45;101881.97;4998303;28;45337;-46
2023/04/09 03:32:54;;;;;;;;;41.50;32.75;;;;;10.48;58.56;101869.25;4998314;28;45291;-45
2023/04/09 03:35:19;;;;;;;;;36.00;32.00;;;;;10.60;58.69;101890.56;4998578;28;45247;-48
2023/04/09 03:37:45;;;;;;;;;33.50;26.75;;;;;10.61;58.92;101901.09;4997959;28;45496;-48
2023/04/09 03:40:11;;;;;;;;;32.00;25.25;;;;;10.58;58.86;101895.19;4997948;28;45350;-48
2023/04/09 03:42:36;;;;;;;;;40.00;32.75;;;;;10.60;58.98;101899.41;4997942;28;45316;-45
2023/04/09 03:45:03;;;;;;;;;42.75;36.00;;;;;10.55;59.08;101890.09;4997591;28;45342;-43
2023/04/09 03:47:28;;;;;;;;;69.50;49.75;;;;;10.57;59.55;101891.63;4998023;28;46272;-44
2023/04/09 03:49:53;;;;;;;;;42.75;38.25;;;;;10.56;58.94;101889.97;4997938;28;45321;-43
2023/04/09 03:52:19;;;;;;;;;50.75;33.00;;;;;10.54;59.05;101886.59;4998232;28;45398;-46
2023/04/09 03:54:44;;;;;;;;;38.00;31.25;;;;;10.41;59.23;101870.72;4998360;28;45405;-44
2023/04/09 03:57:09;;;;;;;;;38.75;29.00;;;;;10.53;59.09;101890.19;4997429;28;45487;-44
2023/04/09 03:59:35;;;;;;;;;39.50;30.25;;;;;10.52;59.12;101891.16;4997930;28;45491;-44
2023/04/09 04:02:00;;;;;;;;;35.00;28.00;;;;;10.42;59.33;101872.41;4997928;28;45423;-45
2023/04/09 04:04:26;;;;;;;;;36.00;26.75;;;;;10.50;59.36;101895.75;4997905;28;45464;-45
2023/04/09 04:06:51;;;;;;;;;39.75;31.25;;;;;10.48;59.43;101885.22;4997681;28;45526;-45
2023/04/09 04:09:16;;;;;;;;;47.50;34.75;;;;;10.46;59.30;101883.66;4997454;28;45446;-43
2023/04/09 04:11:41;;;;;;;;;43.25;32.00;;;;;10.45;59.28;101884.63;4997631;28;45945;-43
2023/04/09 04:14:07;;;;;;;;;34.50;29.00;;;;;10.44;59.76;101883.75;4997634;28;45436;-45
2023/04/09 04:16:32;;;;;;;;;40.50;28.25;;;;;10.42;59.38;101879.53;4997587;28;45387;-45
2023/04/09 04:18:58;;;;;;;;;44.25;25.75;;;;;10.41;59.56;101872.53;4997427;28;45353;-45
2023/04/09 04:21:23;;;;;;;;;39.75;30.50;;;;;10.39;59.73;101869.13;4997719;28;45408;-46
2023/04/09 04:23:48;;;;;;;;;42.25;33.25;;;;;10.36;59.77;101874.69;4997691;28;45484;-44
2023/04/09 04:26:14;;;;;;;;;42.00;30.25;;;;;10.35;59.70;101862.34;4997408;28;46591;-44
2023/04/09 04:28:40;;;;;;;;;34.75;29.50;;;;;10.34;59.82;101873.97;4997744;28;45409;-45
2023/04/09 04:31:12;;;;;;;;;35.00;28.75;;;;;10.35;59.66;101878.31;4997907;28;45623;-44
2023/04/09 04:33:39;;;;;;;;;38.25;27.00;;;;;10.33;59.79;101886.41;4997636;28;45360;-46
2023/04/09 04:36:09;;;;;;;;;36.75;30.25;;;;;10.31;59.54;101879.50;4997160;28;47215;-43
2023/04/09 04:38:35;;;;;;;;;45.75;34.50;;;;;10.29;59.96;101887.63;4997328;28;45364;-44
2023/04/09 04:41:01;;;;;;;;;47.50;37.25;;;;;10.14;59.99;101860.31;4997404;28;45385;-45
2023/04/09 04:43:27;;;;;;;;;43.75;31.00;;;;;10.27;60.36;101886.03;4996193;28;45358;-44
2023/04/09 04:45:53;;;;;;;;;29.50;28.50;;;;;10.07;59.97;101855.59;4996824;28;45588;-45
2023/04/09 04:48:18;;;;;;;;;38.50;29.75;;;;;10.21;60.27;101893.47;4997319;28;45372;-46
2023/04/09 04:50:44;;;;;;;;;54.50;36.50;;;;;10.22;60.24;101889.84;4979515;28;45411;-44
2023/04/09 04:53:09;;;;;;;;;50.25;34.50;;;;;10.18;60.40;101885.72;4979971;28;45393;-44
2023/04/09 04:55:35;;;;;;;;;41.00;33.75;;;;;10.18;60.45;101893.69;4998717;28;45238;-44
2023/04/09 04:58:01;;;;;;;;;44.50;31.50;;;;;10.12;60.05;101896.00;5000172;28;45291;-42
2023/04/09 05:00:26;;;;;;;;;49.75;35.00;;;;;10.11;60.39;101896.94;5000722;28;45255;-45
2023/04/09 05:02:51;;;;;;;;;41.75;32.25;;;;;10.09;60.87;101905.03;5000729;28;45219;-48
2023/04/09 05:05:17;;;;;;;;;42.75;36.25;;;;;9.96;60.80;101883.84;5000195;28;45273;-43
2023/04/09 05:07:42;;;;;;;;;41.75;29.75;;;;;10.06;61.00;101899.94;5000288;28;45643;-43
2023/04/09 05:10:08;;;;;;;;;38.75;28.50;;;;;10.06;60.62;101902.59;5000641;28;45463;-44
2023/04/09 05:12:34;;;;;;;;;40.00;31.75;;;;;10.05;60.34;101906.22;5000421;28;45412;-46
2023/04/09 05:14:59;;;;;;;;;42.50;34.00;;;;;10.03;61.13;101907.28;5000019;28;46268;-46
2023/04/09 05:17:24;;;;;;;;;38.75;33.50;;;;;10.03;60.78;101916.13;5000160;28;45442;-44
2023/04/09 05:19:51;;;;;;;;;48.00;34.75;;;;;10.00;60.58;101916.34;5000452;28;45472;-44
2023/04/09 05:22:17;;;;;;;;;49.00;34.75;;;;;9.99;61.15;101912.00;5000341;28;45278;-45
2023/04/09 05:24:42;;;;;;;;;32.00;28.75;;;;;10.00;61.13;101919.88;4999844;28;45401;-42
2023/04/09 05:27:07;;;;;;;;;52.75;38.00;;;;;9.99;61.07;101909.34;5000037;28;45417;-43
2023/04/09 05:29:33;;;;;;;;;50.25;36.50;;;;;9.99;61.38;101909.34;5000090;28;45554;-44
2023/04/09 05:31:58;;;;;;;;;45.00;37.75;;;;;10.01;61.25;101915.38;5000514;28;45251;-43
2023/04/09 05:34:23;;;;;;;;;53.25;38.00;;;;;10.02;61.40;101916.22;4999938;28;46179;-45
2023/04/09 05:36:49;;;;;;;;;37.75;31.50;;;;;10.05;61.42;101918.66;5000010;28;45318;-43
2023/04/09 05:39:14;;;;;;;;;43.50;38.00;;;;;10.08;61.31;101915.78;4999989;28;45243;-44
2023/04/09 05:41:40;;;;;;;;;41.50;30.50;;;;;10.05;60.96;101911.53;4999862;28;45270;-44
2023/04/09 05:44:06;;;;;;;;;35.75;32.75;;;;;10.09;61.06;101915.66;4999405;28;46208;-45
2023/04/09 05:46:31;;;;;;;;;63.75;46.25;;;;;10.13;60.94;101919.78;4999533;28;45372;-44
2023/04/09 05:48:56;;;;;;;;;68.25;49.25;;;;;10.02;60.63;101898.47;4999954;28;45424;-45
2023/04/09 05:51:22;;;;;;;;;49.00;39.25;;;;;10.20;60.85;101918.38;4982317;28;45248;-43
2023/04/09 05:53:47;;;;;;;;;53.75;39.25;;;;;10.23;61.04;101910.16;4999380;28;45448;-45
2023/04/09 05:56:14;;;;;;;;;45.50;34.00;;;;;10.26;60.79;101922.41;4999535;28;45349;-47
2023/04/09 05:58:39;;;;;;;;;47.75;36.75;;;;;10.29;60.22;101922.19;4999476;28;45406;-44
2023/04/09 06:01:05;;;;;;;;;42.00;37.00;;;;;10.28;60.52;101920.50;4999765;28;45341;-45
2023/04/09 06:03:30;;;;;;;;;49.25;40.75;;;;;10.27;59.78;101917.94;4999242;28;50943;-43
2023/04/09 06:05:56;;;;;;;;;43.25;34.25;;;;;10.26;60.22;101933.06;4999486;28;45510;-43
2023/04/09 06:08:21;;;;;;;;;45.00;30.25;;;;;10.28;60.16;101927.59;4998893;28;45466;-43
2023/04/09 06:10:46;;;;;;;;;54.00;38.75;;;;;10.30;60.41;101933.66;4999749;28;45369;-47
2023/04/09 06:13:12;;;;;;;;;42.50;38.00;;;;;10.30;60.50;101937.19;4999224;28;45850;-45
2023/04/09 06:15:38;;;;;;;;;51.75;38.50;;;;;10.32;60.53;101947.69;4999133;28;45475;-44
2023/04/09 06:18:03;;;;;;;;;43.25;32.00;;;;;10.36;60.16;101938.50;4999556;28;45326;-44
2023/04/09 06:20:29;;;;;;;;;42.50;37.00;;;;;10.39;60.53;101936.47;4999491;28;45302;-45
2023/04/09 06:22:54;;;;;;;;;43.25;36.50;;;;;10.42;60.01;101944.22;4999131;28;46227;-44
2023/04/09 06:25:20;;;;;;;;;52.75;35.25;;;;;10.45;60.33;101941.34;4999252;28;45269;-44
2023/04/09 06:27:45;;;;;;;;;50.75;35.75;;;;;10.46;60.06;101934.22;4999223;28;45534;-45
2023/04/09 06:30:11;;;;;;;;;47.50;38.50;;;;;10.48;59.97;101941.09;4999446;28;45353;-44
2023/04/09 06:32:36;;;;;;;;;44.50;35.50;;;;;10.53;60.02;101940.72;4999201;28;46366;-43
2023/04/09 06:35:02;;;;;;;;;54.50;40.75;;;;;10.58;59.71;101937.75;4999103;28;45213;-48
2023/04/09 06:37:28;;;;;;;;;47.75;38.25;;;;;10.60;59.43;101939.31;4999460;28;45381;-47
2023/04/09 06:39:53;;;;;;;;;54.25;37.50;;;;;10.58;59.73;101933.28;4999213;28;45579;-43
2023/04/09 06:42:18;;;;;;;;;44.00;34.75;;;;;10.67;59.63;101939.69;4980944;28;45440;-44
2023/04/09 06:44:44;;;;;;;;;50.75;38.75;;;;;10.71;59.90;101943.81;4998834;28;45657;-43
2023/04/09 06:47:09;;;;;;;;;57.75;41.75;;;;;10.76;59.83;101938.97;4998547;28;45366;-46
2023/04/09 06:49:35;;;;;;;;;50.25;39.25;;;;;10.81;59.51;101935.97;4999079;28;45446;-44
2023/04/09 06:52:00;;;;;;;;;58.50;39.75;;;;;10.90;59.55;101932.59;4998559;28;45428;-43
2023/04/09 06:54:26;;;;;;;;;46.50;34.00;;;;;10.95;59.38;101941.03;4998932;28;45395;-43
2023/04/09 06:56:51;;;;;;;;;53.00;42.00;;;;;11.00;59.41;101944.22;4999098;28;45408;-45
2023/04/09 06:59:17;;;;;;;;;48.75;38.25;;;;;11.06;58.87;101937.56;4998867;28;45404;-44
2023/04/09 07:01:42;;;;;;;;;53.00;40.75;;;;;11.11;58.79;101932.72;4964779;28;46201;-45
2023/04/09 07:04:07;;;;;;;;;61.00;43.00;;;;;11.18;58.99;101939.25;4998630;28;45471;-44
2023/04/09 07:06:33;;;;;;;;;46.50;36.50;;;;;11.29;58.61;101941.06;4998778;28;45789;-46
2023/04/09 07:08:58;;;;;;;;;56.75;39.75;;;;;11.42;58.34;101942.63;4998941;28;45396;-44
2023/04/09 07:11:23;;;;;;;;;52.00;35.50;;;;;11.62;57.98;101943.69;4998087;28;47038;-45
2023/04/09 07:13:49;;;;;;;;;47.50;37.25;;;;;11.88;57.13;101941.63;4998475;28;45389;-47
2023/04/09 07:16:14;;;;;;;;;57.75;38.75;;;;;12.24;56.31;101943.03;4998623;28;45330;-44
2023/04/09 07:18:40;;;;;;;;;49.50;39.00;;;;;12.77;55.63;101943.94;4997532;28;45357;-43
2023/04/09 07:21:05;;;;;;;;;53.75;36.00;;;;;13.35;53.81;101938.91;4998351;28;46161;-45
2023/04/09 07:23:35;;;;;;;;;46.50;37.75;;;;;14.03;52.71;101941.72;4997945;28;45177;-48
2023/04/09 07:26:04;;;;;;;;;42.75;35.25;;;;;14.92;51.24;101934.31;4998613;28;45424;-47
2023/04/09 07:28:29;;;;;;;;;42.75;30.50;;;;;15.85;48.76;101935.16;4998430;28;45428;-44
2023/04/09 07:30:55;;;;;;;;;45.75;36.25;;;;;16.79;46.27;101931.91;4997909;28;46295;-44
2023/04/09 07:33:20;;;;;;;;;44.75;37.00;;;;;17.75;44.35;101929.00;4998181;28;45530;-47
2023/04/09 07:35:46;;;;;;;;;47.75;36.50;;;;;18.55;42.19;101924.66;4998086;28;45341;-47
2023/04/09 07:38:11;;;;;;;;;41.33;33.33;;;;;18.98;41.96;101921.75;4998299;28;45400;-45
2023/04/09 07:40:36;;;;;;;;;47.67;36.33;;;;;19.43;40.57;101924.59;4997727;28;46432;-44
2023/04/09 07:43:03;;;;;;;;;39.67;33.00;;;;;20.02;39.35;101921.41;4997672;28;45349;-44
2023/04/09 07:45:28;;;;;;;;;34.33;32.00;;;;;20.72;38.26;101922.16;4998005;28;45334;-48
2023/04/09 07:47:54;;;;;;;;;49.00;33.00;;;;;21.43;36.89;101926.09;4997966;28;45432;-47
2023/04/09 07:50:19;;;;;;;;;39.67;34.33;;;;;21.97;36.23;101924.81;4997953;28;45337;-46
2023/04/09 07:52:45;;;;;;;;;42.00;36.33;;;;;22.46;34.71;101919.44;4997671;28;45273;-46
2023/04/09 07:55:10;;;;;;;;;44.67;33.00;;;;;22.89;33.46;101913.91;4997466;28;45380;-47
2023/04/09 07:57:36;;;;;;;;;40.67;34.33;;;;;23.09;34.22;101911.31;4997896;28;45577;-46
2023/04/09 08:00:02;;;;;;;;;47.00;35.00;;;;;23.25;34.22;101921.00;4996925;28;46699;-45
2023/04/09 08:02:28;;;;;;;;;47.33;38.67;;;;;23.28;32.81;101920.59;4997565;28;45356;-47
2023/04/09 08:04:53;;;;;;;;;45.33;33.00;;;;;23.09;33.39;101912.16;4997581;28;45257;-47
2023/04/09 08:07:18;;;;;;;;;40.33;34.67;;;;;22.96;33.77;101914.78;4998030;28;45365;-45
2023/04/09 08:09:43;;;;;;;;;43.00;32.33;;;;;23.03;33.81;101914.84;4997440;28;45322;-44
2023/04/09 08:12:09;;;;;;;;;48.00;34.00;;;;;23.48;32.90;101917.97;4997481;28;45375;-43
2023/04/09 08:14:35;;;;;;;;;45.67;36.00;;;;;23.81;32.93;101918.09;4997503;28;45538;-48
2023/04/09 08:17:01;;;;;;;;;45.33;33.67;;;;;24.07;32.47;101918.13;4997653;28;45330;-46
2023/04/09 08:19:26;;;;;;;;;40.67;33.00;;;;;24.61;31.45;101919.84;4997330;28;47085;-45
2023/04/09 08:21:51;;;;;;;;;42.67;34.33;;;;;25.10;31.03;101915.75;4997477;28;45320;-45
2023/04/09 08:24:17;;;;;;;;;44.00;34.00;;;;;25.39;30.74;101917.09;4997591;28;45214;-48
2023/04/09 08:26:43;;;;;;;;;35.67;32.00;;;;;25.68;30.41;101919.50;4997456;28;45350;-48
2023/04/09 08:29:10;;;;;;;;;40.67;34.00;;;;;25.45;30.77;101918.16;4997325;28;45884;-44
2023/04/09 08:31:36;;;;;;;;;43.67;33.33;;;;;24.92;30.65;101899.25;4996751;28;45366;-45
2023/04/09 08:34:01;;;;;;;;;39.33;33.00;;;;;24.96;30.73;101911.38;4997476;28;45323;-45
2023/04/09 08:36:27;;;;;;;;;38.67;32.33;;;;;24.86;31.32;101911.84;4997436;28;45386;-48
2023/04/09 08:38:54;;;;;;;;;39.33;31.67;;;;;24.67;30.91;101904.53;4996548;28;45995;-47
2023/04/09 08:41:24;;;;;;;;;38.33;31.33;;;;;24.71;31.81;101908.50;4997165;28;45370;-45
2023/04/09 08:43:51;;;;;;;;;40.67;30.67;;;;;24.61;31.79;101908.94;4997079;28;45318;-46
2023/04/09 08:46:20;;;;;;;;;36.67;32.33;;;;;24.77;31.66;101904.09;4996971;28;45691;-44
2023/04/09 08:48:47;;;;;;;;;39.67;34.33;;;;;25.05;30.70;101910.09;4997310;28;45300;-46
2023/04/09 08:51:17;;;;;;;;;36.33;33.00;;;;;25.31;31.27;101917.34;4997208;28;45266;-47
2023/04/09 08:53:45;;;;;;;;;34.33;30.00;;;;;25.46;30.29;101906.19;4997177;28;45372;-46
2023/04/09 08:56:12;;;;;;;;;38.33;32.33;;;;;25.58;29.68;101900.91;4997318;28;45363;-48
2023/04/09 08:58:41;;;;;;;;;35.25;29.50;;;;;25.82;29.28;101888.38;4996929;28;46064;-48
2023/04/09 09:01:26;;;;;;;;;45.00;33.33;;;;;26.24;30.05;101902.34;4996620;28;45369;-47
2023/04/09 09:03:54;;;;;;;;;37.50;32.00;;;;;26.61;28.33;101892.38;4997034;28;45387;-47
2023/04/09 09:06:21;;;;;;;;;31.50;28.00;;;;;27.54;27.24;101886.66;4996881;28;45400;-47
2023/04/09 09:08:59;;;;;;;;;33.50;29.50;;;;;29.63;25.51;101900.84;4996739;28;46275;-45
2023/04/09 09:11:26;;;;;;;;;32.40;27.80;;;;;31.58;21.70;101892.44;4996589;28;45480;-48
2023/04/09 09:13:57;;;;;;;;;34.25;28.25;;;;;33.34;21.06;101889.53;4996912;28;45475;-47
2023/04/09 09:16:23;;;;;;;;;40.25;30.25;;;;;34.92;19.94;101889.47;4996747;28;45195;-46
2023/04/09 09:18:48;;;;;;;;;32.25;26.50;;;;;36.20;18.45;101878.41;4996711;28;46225;-49
2023/04/09 09:21:16;;;;;;;;;31.50;28.50;;;;;37.10;17.72;101876.84;4996812;28;45472;-49
2023/04/09 09:23:42;;;;;;;;;28.20;23.80;;;;;37.62;16.62;101874.97;4996782;28;45393;-49
2023/04/09 09:26:15;;;;;;;;;34.00;31.25;;;;;37.96;17.33;101879.44;4996848;28;45356;-49
2023/04/09 09:28:41;;;;;;;;;31.60;29.20;;;;;38.29;17.04;101880.22;4996346;28;45480;-47
2023/04/09 09:31:08;;;;;;;;;36.25;31.00;;;;;39.07;15.66;101877.59;4996496;28;45356;-45
2023/04/09 09:33:34;;;;;;;;;30.60;29.00;;;;;40.04;15.22;101872.50;4996624;28;45448;-45
2023/04/09 09:36:02;;;;;;;;;25.40;22.80;;;;;40.14;14.78;101861.91;4997059;28;45377;-45
2023/04/09 09:38:28;;;;;;;;;25.00;22.40;;;;;40.82;14.04;101859.69;4995977;28;45374;-47
2023/04/09 09:40:53;;;;;;;;;28.75;22.75;;;;;41.57;14.02;101845.66;4996256;28;45317;-46
2023/04/09 09:43:19;;;;;;;;;28.00;22.25;;;;;42.43;14.02;101858.56;4999014;28;45271;-47
2023/04/09 09:45:46;;;;;;;;;22.00;21.75;;;;;42.67;14.03;101855.19;4999734;28;45369;-45
2023/04/09 09:48:12;;;;;;;;;32.80;27.40;;;;;42.51;13.42;101845.69;4999727;28;46146;-43
2023/04/09 09:50:40;;;;;;;;;24.25;20.25;;;;;43.20;12.44;101845.28;4999676;28;45447;-45
2023/04/09 09:53:07;;;;;;;;;29.00;25.40;;;;;43.57;12.14;101837.03;4999730;28;45261;-48
2023/04/09 09:55:37;;;;;;;;;26.60;24.00;;;;;43.89;12.94;101845.81;4999913;28;45459;-47
2023/04/09 09:58:18;;;;;;;;;23.20;21.20;;;;;44.52;12.99;101844.34;4999728;28;46486;-44
2023/04/09 10:00:46;;;;;;;;;19.20;17.60;;;;;44.40;11.70;101843.53;4999285;28;45327;-46
2023/04/09 10:03:18;;;;;;;;;17.60;15.00;;;;;44.55;11.92;101842.81;4999029;28;45338;-47
2023/04/09 10:05:44;;;;;;;;;15.00;15.00;;;;;44.64;10.65;101832.31;4999874;28;45324;-43
2023/04/09 10:08:11;;;;;;;;;20.40;18.20;;;;;44.64;11.03;101842.72;4999312;28;46348;-43
2023/04/09 10:10:40;;;;;;;;;20.60;18.60;;;;;44.43;11.83;101838.03;4999406;28;45420;-45
2023/04/09 10:13:12;;;;;;;;;23.60;20.00;;;;;44.30;11.78;101834.41;4999326;28;45329;-47
2023/04/09 10:15:38;;;;;;;;;20.00;19.60;;;;;44.39;10.62;101825.06;4999477;28;45452;-52
2023/04/09 10:18:04;;;;;;;;;21.40;18.00;;;;;44.20;11.02;101834.84;4999354;28;46333;-45
2023/04/09 10:20:40;;;;;;;;;17.75;14.75;;;;;44.50;12.10;101834.63;4999345;28;46072;-51
2023/04/09 10:23:18;;;;;;;;;18.20;16.00;;;;;45.02;12.18;101831.06;4999409;28;45290;-51
2023/04/09 10:25:43;;;;;;;;;22.80;20.80;;;;;44.98;11.21;101828.13;4999510;28;45477;-49
2023/04/09 10:28:17;;;;;;;;;21.75;19.50;;;;;44.30;11.87;101823.19;4999338;28;47291;-51
2023/04/09 10:30:42;;;;;;;;;21.20;18.20;;;;;44.41;10.74;101834.75;4998472;28;45384;-51
2023/04/09 10:33:28;;;;;;;;;21.25;18.75;;;;;43.61;12.35;101832.38;4999226;28;45243;-51
2023/04/09 10:35:58;;;;;;;;;22.40;19.00;;;;;43.36;11.51;101817.44;4999280;28;45333;-56
2023/04/09 10:38:37;;;;;;;;;20.00;18.60;;;;;43.37;11.96;101827.50;4998598;28;45330;-53
2023/04/09 10:41:21;;;;;;;;;19.40;16.20;;;;;43.74;12.10;101816.41;4999157;28;45474;-47
2023/04/09 10:43:47;;;;;;;;;20.80;17.80;;;;;43.68;11.00;101820.63;4999035;28;45436;-50
2023/04/09 10:46:30;;;;;;;;;19.20;17.40;;;;;43.07;11.18;101816.41;4999155;28;45169;-45
2023/04/09 10:49:21;;;;;;;;;16.00;14.40;;;;;43.48;11.71;101813.91;4981078;28;47804;-45
2023/04/09 10:51:50;;;;;;;;;15.00;12.60;;;;;44.07;10.36;101805.97;4998836;28;45319;-44
2023/04/09 10:54:33;;;;;;;;;16.20;15.60;;;;;43.81;11.74;101802.66;4999084;28;45293;-45
2023/04/09 10:57:07;;;;;;;;;15.20;15.20;;;;;43.88;10.89;101800.13;4999180;28;45318;-44
2023/04/09 10:59:40;;;;;;;;;15.40;15.20;;;;;43.54;11.00;101809.72;4998691;28;47041;-48
2023/04/09 11:02:09;;;;;;;;;17.20;15.20;;;;;43.27;10.68;101806.31;4998515;28;45488;-46
2023/04/09 11:04:37;;;;;;;;;13.20;9.20;;;;;42.16;11.23;101791.91;4998983;28;45295;-45
2023/04/09 11:07:05;;;;;;;;;16.20;14.00;;;;;39.21;12.95;101805.19;4998934;28;45231;-42
2023/04/09 11:09:34;;;;;;;;;12.80;12.60;;;;;40.44;12.43;101802.81;4998556;28;45379;-44